Interlink Verity — V7VP5 — position and weather

sailwx.info

Track history (hours):
 
Tides and Currents Weather Stations Pressure Air Temp Water Temp Dewpoint Dewpoint Depression Visibility Wind Speed Wind Dir Waves Ship Positions

Interlink Verity

Last reported at 2018-Jun-15 18:44 UTC. Time now 2018-Jun-17 22:01 UTC.
Position N 00°09' E 103°59'.

Length 190 m; draft 6.9 m.

Type: Cargo ship. MMSI: 538004179.

Date/timePositionNaut miles runAvg speedWind from/ knotsBaromVisibWave heightAir tempDewpointWater temp
2018-Jun-15 18:44N 00°09' E 103°59'313.2
2018-Jun-15 18:30N 00°12' E 103°57'813.3
2018-Jun-15 17:55N 00°19' E 103°53'513.1
2018-Jun-15 17:30N 00°24' E 103°51'813.4
2018-Jun-15 16:54N 00°32' E 103°51'813.0
2018-Jun-15 16:16N 00°37' E 103°45'413.0
2018-Jun-15 15:57N 00°39' E 103°41'612.5
2018-Jun-15 15:30N 00°44' E 103°38'612.2
2018-Jun-15 14:59N 00°50' E 103°36'510.2
2018-Jun-15 14:30N 00°55' E 103°35'3 5.8
2018-Jun-15 14:00N 00°58' E 103°35'2 4.7
2018-Jun-15 13:30N 00°60' E 103°35'1 1.2
2018-Jun-15 12:49N 01°01' E 103°36'0 0.0
2018-Jun-15 12:30N 01°01' E 103°36'0 0.0
2018-Jun-15 11:40N 01°01' E 103°36'0 0.0
2018-Jun-15 11:13N 01°01' E 103°36'0 0.0
2018-Jun-15 10:58N 01°01' E 103°36'0 0.0
2018-Jun-15 10:28N 01°01' E 103°36'0 0.0
2018-Jun-15 09:49N 01°01' E 103°36'0 0.0
2018-Jun-15 09:25N 01°01' E 103°36'0 0.2
2018-Jun-15 08:55N 01°01' E 103°36'0 0.1
2018-Jun-15 08:25N 01°01' E 103°36'0 0.0
2018-Jun-15 07:58N 01°01' E 103°36'0 0.1
2018-Jun-15 07:19N 01°01' E 103°36'0 0.0
2018-Jun-15 06:52N 01°01' E 103°36'0 0.0
2018-Jun-15 06:25N 01°01' E 103°36'0 0.0
2018-Jun-15 05:55N 01°01' E 103°36'0 0.0
2018-Jun-15 05:13N 01°01' E 103°36'0 0.0
2018-Jun-15 04:31N 01°01' E 103°36'0 0.0
2018-Jun-15 04:16N 01°01' E 103°36'0 0.0
2018-Jun-15 03:55N 01°01' E 103°36'0 0.1
2018-Jun-15 01:25N 01°01' E 103°36'0 0.1
2018-Jun-15 00:52N 01°01' E 103°36'0 0.0
2018-Jun-15 00:30N 01°01' E 103°36'0 0.0
2018-Jun-14 23:58N 01°01' E 103°36'0 0.0
2018-Jun-14 23:19N 01°01' E 103°36'0 0.0
2018-Jun-14 22:58N 01°01' E 103°36'0 0.0
2018-Jun-14 22:30N 01°01' E 103°36'0 0.0
2018-Jun-14 21:46N 01°01' E 103°36'0 0.0
2018-Jun-14 21:30N 01°01' E 103°36'0 0.0
2018-Jun-14 20:58N 01°01' E 103°36'0 0.0
2018-Jun-14 20:10N 01°01' E 103°36'0 0.0
2018-Jun-14 19:49N 01°01' E 103°36'0 0.0
2018-Jun-14 19:22N 01°01' E 103°36'0 0.0
2018-Jun-14 18:58N 01°01' E 103°36'0 0.0
2018-Jun-14 18:13N 01°01' E 103°36'0 0.2
2018-Jun-14 17:56N 01°01' E 103°36'0 0.0
2018-Jun-14 17:19N 01°01' E 103°36'0 0.4
2018-Jun-14 17:00N 01°01' E 103°36'3 6.2
2018-Jun-14 16:28N 01°03' E 103°34'5 9.9
2018-Jun-14 16:00N 01°08' E 103°33'611.3
2018-Jun-14 15:31N 01°11' E 103°37'612.2
2018-Jun-14 15:00N 01°08' E 103°43'612.4
2018-Jun-14 14:31N 01°11' E 103°49'611.3
2018-Jun-14 14:00N 01°14' E 103°53'2 2.9
2018-Jun-14 13:24N 01°16' E 103°53'0 0.0
2018-Jun-14 12:54N 01°16' E 103°53'0 0.0
2018-Jun-14 12:30N 01°16' E 103°53'0 0.0
2018-Jun-14 11:57N 01°16' E 103°53'0 0.0
2018-Jun-14 11:30N 01°16' E 103°53'0 0.0
2018-Jun-14 10:59N 01°16' E 103°53'0 0.0
2018-Jun-14 10:30N 01°16' E 103°53'0 0.0
2018-Jun-14 09:57N 01°16' E 103°53'0 0.0
2018-Jun-14 09:24N 01°16' E 103°53'0 0.0
2018-Jun-14 08:57N 01°16' E 103°53'0 0.0
2018-Jun-14 08:27N 01°16' E 103°53'0 0.0
2018-Jun-14 07:48N 01°16' E 103°53'0 0.1
2018-Jun-14 07:30N 01°16' E 103°53'0 0.1
2018-Jun-14 07:00N 01°16' E 103°53'0 0.1
2018-Jun-14 06:30N 01°16' E 103°53'0 0.1
2018-Jun-14 05:53N 01°16' E 103°53'0 0.0
2018-Jun-14 05:27N 01°16' E 103°53'0 0.1
2018-Jun-14 04:51N 01°16' E 103°53'0 0.2
2018-Jun-14 04:30N 01°16' E 103°53'0 0.0
2018-Jun-14 03:59N 01°16' E 103°53'0 0.1
2018-Jun-14 03:27N 01°16' E 103°53'0 0.0
2018-Jun-14 02:56N 01°16' E 103°53'0 0.0
2018-Jun-14 02:30N 01°16' E 103°53'0 0.0
2018-Jun-14 01:48N 01°16' E 103°53'0 0.0
2018-Jun-14 01:30N 01°16' E 103°53'0 0.0
2018-Jun-14 00:57N 01°16' E 103°53'0 0.1
2018-Jun-14 00:30N 01°16' E 103°53'0 0.0
2018-Jun-13 23:57N 01°16' E 103°53'0 0.0
2018-Jun-13 23:30N 01°16' E 103°53'0 0.0
2018-Jun-13 22:54N 01°16' E 103°53'0 0.0
2018-Jun-13 22:26N 01°16' E 103°53'0 0.2
2018-Jun-13 21:59N 01°16' E 103°53'0 0.2
2018-Jun-13 21:27N 01°16' E 103°53'0 0.1
2018-Jun-13 20:57N 01°16' E 103°53'0 0.0
2018-Jun-13 20:30N 01°16' E 103°53'0 0.0
2018-Jun-13 20:00N 01°16' E 103°53'0 0.1
2018-Jun-13 19:30N 01°16' E 103°53'0 0.0
2018-Jun-13 18:57N 01°16' E 103°53'0 0.0
2018-Jun-13 18:24N 01°16' E 103°53'0 0.0
2018-Jun-13 17:54N 01°16' E 103°53'0 0.0
2018-Jun-13 17:30N 01°16' E 103°53'0 0.0
2018-Jun-13 16:57N 01°16' E 103°53'0 0.1
2018-Jun-13 16:30N 01°16' E 103°53'0 0.0
2018-Jun-13 15:57N 01°16' E 103°53'0 0.1
2018-Jun-13 15:09N 01°16' E 103°53'0 0.0
2018-Jun-13 14:58N 01°16' E 103°53'0 0.1
2018-Jun-13 14:30N 01°16' E 103°53'0 0.2
2018-Jun-13 13:59N 01°16' E 103°53'0 0.1
2018-Jun-13 13:29N 01°16' E 103°53'0 0.0
2018-Jun-13 12:57N 01°16' E 103°53'0 0.0
2018-Jun-13 12:30N 01°16' E 103°53'0 0.0
2018-Jun-13 11:58N 01°16' E 103°53'0 0.0
2018-Jun-13 11:24N 01°16' E 103°53'0 0.0
2018-Jun-13 10:51N 01°16' E 103°53'0 0.0
2018-Jun-13 10:24N 01°16' E 103°53'0 0.0
2018-Jun-13 09:54N 01°16' E 103°53'0 0.0
2018-Jun-13 09:27N 01°16' E 103°53'0 0.0
2018-Jun-13 08:57N 01°16' E 103°53'0 0.1
2018-Jun-13 08:29N 01°16' E 103°53'0 0.1
2018-Jun-13 07:53N 01°16' E 103°53'0 0.0
2018-Jun-13 07:27N 01°16' E 103°53'0 0.0
2018-Jun-13 06:57N 01°16' E 103°53'0 0.0
2018-Jun-13 06:29N 01°16' E 103°53'0 0.0
2018-Jun-13 05:59N 01°16' E 103°53'0 0.0
2018-Jun-13 05:30N 01°16' E 103°53'0 0.0
2018-Jun-13 04:59N 01°16' E 103°53'0 0.0
2018-Jun-13 04:23N 01°16' E 103°53'0 0.2
2018-Jun-13 03:59N 01°16' E 103°53'0 0.0
2018-Jun-13 03:27N 01°16' E 103°53'0 0.0
2018-Jun-13 02:57N 01°16' E 103°53'0 0.0
2018-Jun-13 01:54N 01°16' E 103°53'0 0.0
2018-Jun-13 01:24N 01°16' E 103°53'0 0.0
2018-Jun-13 00:54N 01°16' E 103°53'0 0.2
2018-Jun-13 00:30N 01°16' E 103°53'0 0.0
2018-Jun-12 23:57N 01°16' E 103°53'0 0.0
2018-Jun-12 23:27N 01°16' E 103°53'0 0.0
2018-Jun-12 22:51N 01°16' E 103°53'0 0.0
2018-Jun-12 22:30N 01°16' E 103°53'0 0.0
2018-Jun-12 21:51N 01°16' E 103°53'0 0.1
2018-Jun-12 21:24N 01°16' E 103°53'0 0.0
2018-Jun-12 20:54N 01°16' E 103°53'0 0.1
2018-Jun-12 20:24N 01°16' E 103°53'0 0.0
2018-Jun-12 20:00N 01°16' E 103°53'0 0.1
2018-Jun-12 19:18N 01°16' E 103°53'0 0.0
2018-Jun-12 19:00N 01°16' E 103°53'0 0.0
2018-Jun-12 18:29N 01°16' E 103°53'0 0.0
2018-Jun-12 18:00N 01°16' E 103°53'0 0.0
2018-Jun-12 17:30N 01°16' E 103°53'0 0.0
2018-Jun-12 16:56N 01°16' E 103°53'0 0.0
2018-Jun-12 16:26N 01°16' E 103°53'0 0.0
2018-Jun-12 16:00N 01°16' E 103°53'0 0.1
2018-Jun-12 14:53N 01°16' E 103°53'0 0.0
2018-Jun-12 14:29N 01°16' E 103°53'0 0.1
2018-Jun-12 13:57N 01°16' E 103°53'0 0.2
2018-Jun-12 13:27N 01°16' E 103°53'0 0.1
2018-Jun-12 12:59N 01°16' E 103°53'0 0.1
2018-Jun-12 12:30N 01°16' E 103°53'0 0.0
2018-Jun-12 11:59N 01°16' E 103°53'0 0.0
2018-Jun-12 11:27N 01°16' E 103°53'0 0.0
2018-Jun-12 11:00N 01°16' E 103°53'0 0.1
2018-Jun-12 10:18N 01°16' E 103°53'0 0.1
2018-Jun-12 09:59N 01°16' E 103°53'0 0.2
2018-Jun-12 09:27N 01°16' E 103°53'0 0.0
2018-Jun-12 08:54N 01°16' E 103°53'0 0.0
2018-Jun-12 08:29N 01°16' E 103°53'0 0.1
2018-Jun-12 07:57N 01°16' E 103°53'0 0.1
2018-Jun-12 07:06N 01°16' E 103°53'0 0.0
2018-Jun-12 06:57N 01°16' E 103°53'0 0.1
2018-Jun-12 06:29N 01°16' E 103°53'0 0.1
2018-Jun-12 05:50N 01°16' E 103°53'0 0.1
2018-Jun-12 05:19N 01°16' E 103°53'0 0.0
2018-Jun-12 04:58N 01°16' E 103°53'0 0.0
2018-Jun-12 04:28N 01°16' E 103°53'0 0.0
2018-Jun-12 03:58N 01°16' E 103°53'0 0.2
2018-Jun-12 03:25N 01°16' E 103°53'0 0.1
2018-Jun-12 02:58N 01°16' E 103°53'0 0.0
2018-Jun-12 02:28N 01°16' E 103°53'0 0.0
2018-Jun-12 01:52N 01°16' E 103°53'0 0.0
2018-Jun-12 01:28N 01°16' E 103°53'0 0.0
2018-Jun-12 00:58N 01°16' E 103°53'0 0.0
2018-Jun-12 00:28N 01°16' E 103°53'0 0.1
2018-Jun-11 23:58N 01°16' E 103°53'0 0.0
2018-Jun-11 23:28N 01°16' E 103°53'0 0.1
2018-Jun-11 22:53N 01°16' E 103°53'0 0.2
2018-Jun-11 22:25N 01°16' E 103°53'0 0.1
2018-Jun-11 21:58N 01°16' E 103°53'0 0.0
2018-Jun-11 21:28N 01°16' E 103°53'0 0.0
2018-Jun-11 20:58N 01°16' E 103°53'0 0.0
2018-Jun-11 20:28N 01°16' E 103°53'0 0.1
2018-Jun-11 19:58N 01°16' E 103°53'0 0.0
2018-Jun-11 19:28N 01°16' E 103°53'0 0.0
2018-Jun-11 18:55N 01°16' E 103°53'0 0.0
2018-Jun-11 18:28N 01°16' E 103°53'0 0.0
2018-Jun-11 17:49N 01°16' E 103°53'0 0.0
2018-Jun-11 17:28N 01°16' E 103°53'0 0.0
2018-Jun-11 16:58N 01°16' E 103°53'0 0.0
2018-Jun-11 16:16N 01°16' E 103°53'0 0.1
2018-Jun-11 15:51N 01°16' E 103°53'0 0.0
2018-Jun-11 15:28N 01°16' E 103°53'0 0.1
2018-Jun-11 14:58N 01°16' E 103°53'0 0.1
2018-Jun-11 14:16N 01°16' E 103°53'0 0.0
2018-Jun-11 13:58N 01°16' E 103°53'0 0.0
2018-Jun-11 13:31N 01°16' E 103°53'0 0.2
2018-Jun-11 12:47N 01°16' E 103°53'0 0.1
2018-Jun-11 12:25N 01°16' E 103°53'0 0.1
2018-Jun-11 11:58N 01°16' E 103°53'0 0.1
2018-Jun-11 11:25N 01°16' E 103°53'0 0.0
2018-Jun-11 10:52N 01°16' E 103°53'0 0.0
2018-Jun-11 10:27N 01°16' E 103°53'0 0.0
2018-Jun-11 09:57N 01°16' E 103°53'0 0.1
2018-Jun-11 09:10N 01°16' E 103°53'0 0.1
2018-Jun-11 08:58N 01°16' E 103°53'0 0.2
2018-Jun-11 08:31N 01°16' E 103°53'0 0.1
2018-Jun-11 07:57N 01°16' E 103°53'0 0.1
2018-Jun-11 07:30N 01°16' E 103°53'0 0.0
2018-Jun-11 06:52N 01°16' E 103°53'0 0.0
2018-Jun-11 06:30N 01°16' E 103°53'0 0.0
2018-Jun-11 05:06N 01°16' E 103°53'0 0.0
2018-Jun-11 04:34N 01°16' E 103°53'0 0.0
2018-Jun-11 04:23N 01°16' E 103°53'0 0.0
2018-Jun-11 03:59N 01°16' E 103°53'0 0.0
2018-Jun-11 03:19N 01°16' E 103°53'0 0.0
2018-Jun-11 02:49N 01°16' E 103°53'0 0.1
2018-Jun-11 02:28N 01°16' E 103°53'0 0.1
2018-Jun-11 01:58N 01°16' E 103°53'0 0.2
2018-Jun-11 01:28N 01°16' E 103°53'0 0.1
2018-Jun-11 00:58N 01°16' E 103°53'0 0.0
2018-Jun-11 00:26N 01°16' E 103°53'0 0.0
2018-Jun-10 23:57N 01°16' E 103°53'0 0.0
2018-Jun-10 23:30N 01°16' E 103°53'0 0.0
2018-Jun-10 22:57N 01°16' E 103°53'0 0.0
2018-Jun-10 22:30N 01°16' E 103°53'0 0.0
2018-Jun-10 21:58N 01°16' E 103°53'0 0.2
2018-Jun-10 21:30N 01°16' E 103°53'0 0.1
2018-Jun-10 20:45N 01°16' E 103°53'0 0.2
2018-Jun-10 20:25N 01°16' E 103°53'0 0.0
2018-Jun-10 19:53N 01°16' E 103°53'0 0.1
2018-Jun-10 19:25N 01°16' E 103°53'0 0.0
2018-Jun-10 18:49N 01°16' E 103°53'0 0.0
2018-Jun-10 18:28N 01°16' E 103°53'0 0.0
2018-Jun-10 17:58N 01°16' E 103°53'0 0.1
2018-Jun-10 17:29N 01°16' E 103°53'0 0.1
2018-Jun-10 16:58N 01°16' E 103°53'0 0.0
2018-Jun-10 16:24N 01°16' E 103°53'0 0.1
2018-Jun-10 15:59N 01°16' E 103°53'0 0.1
2018-Jun-10 15:30N 01°16' E 103°53'0 0.0
2018-Jun-10 14:57N 01°16' E 103°53'1 2.8
2018-Jun-10 14:29N 01°15' E 103°54'6 6.3
2018-Jun-10 13:30N 01°16' E 103°60'611.0
2018-Jun-10 12:59N 01°17' E 104°05'612.0
2018-Jun-10 12:30N 01°17' E 104°11'611.8
2018-Jun-10 11:59N 01°18' E 104°17'5 9.4
2018-Jun-10 11:30N 01°20' E 104°21'610.3
2018-Jun-10 10:53N 01°24' E 104°26'  
Track history (hours):
 
Tides and Currents Weather Stations Pressure Air Temp Water Temp Dewpoint Dewpoint Depression Visibility Wind Speed Wind Dir Waves Ship Positions

Interlink Verity

Last reported at 2018-Jun-15 18:44 UTC. Time now 2018-Jun-17 22:01 UTC.
Position N 00°09' E 103°59'.

Length 190 m; draft 6.9 m.

Type: Cargo ship. MMSI: 538004179.

Date/timePositionNaut miles runAvg speedWind from/ knotsBaromVisibWave heightAir tempDewpointWater temp
2018-Jun-15 18:44N 00°09' E 103°59'313.2
2018-Jun-15 18:30N 00°12' E 103°57'813.3
2018-Jun-15 17:55N 00°19' E 103°53'513.1
2018-Jun-15 17:30N 00°24' E 103°51'813.4
2018-Jun-15 16:54N 00°32' E 103°51'813.0
2018-Jun-15 16:16N 00°37' E 103°45'413.0
2018-Jun-15 15:57N 00°39' E 103°41'612.5
2018-Jun-15 15:30N 00°44' E 103°38'612.2
2018-Jun-15 14:59N 00°50' E 103°36'510.2
2018-Jun-15 14:30N 00°55' E 103°35'3 5.8
2018-Jun-15 14:00N 00°58' E 103°35'2 4.7
2018-Jun-15 13:30N 00°60' E 103°35'1 1.2
2018-Jun-15 12:49N 01°01' E 103°36'0 0.0
2018-Jun-15 12:30N 01°01' E 103°36'0 0.0
2018-Jun-15 11:40N 01°01' E 103°36'0 0.0
2018-Jun-15 11:13N 01°01' E 103°36'0 0.0
2018-Jun-15 10:58N 01°01' E 103°36'0 0.0
2018-Jun-15 10:28N 01°01' E 103°36'0 0.0
2018-Jun-15 09:49N 01°01' E 103°36'0 0.0
2018-Jun-15 09:25N 01°01' E 103°36'0 0.2
2018-Jun-15 08:55N 01°01' E 103°36'0 0.1
2018-Jun-15 08:25N 01°01' E 103°36'0 0.0
2018-Jun-15 07:58N 01°01' E 103°36'0 0.1
2018-Jun-15 07:19N 01°01' E 103°36'0 0.0
2018-Jun-15 06:52N 01°01' E 103°36'0 0.0
2018-Jun-15 06:25N 01°01' E 103°36'0 0.0
2018-Jun-15 05:55N 01°01' E 103°36'0 0.0
2018-Jun-15 05:13N 01°01' E 103°36'0 0.0
2018-Jun-15 04:31N 01°01' E 103°36'0 0.0
2018-Jun-15 04:16N 01°01' E 103°36'0 0.0
2018-Jun-15 03:55N 01°01' E 103°36'0 0.1
2018-Jun-15 01:25N 01°01' E 103°36'0 0.1
2018-Jun-15 00:52N 01°01' E 103°36'0 0.0
2018-Jun-15 00:30N 01°01' E 103°36'0 0.0
2018-Jun-14 23:58N 01°01' E 103°36'0 0.0
2018-Jun-14 23:19N 01°01' E 103°36'0 0.0
2018-Jun-14 22:58N 01°01' E 103°36'0 0.0
2018-Jun-14 22:30N 01°01' E 103°36'0 0.0
2018-Jun-14 21:46N 01°01' E 103°36'0 0.0
2018-Jun-14 21:30N 01°01' E 103°36'0 0.0
2018-Jun-14 20:58N 01°01' E 103°36'0 0.0
2018-Jun-14 20:10N 01°01' E 103°36'0 0.0
2018-Jun-14 19:49N 01°01' E 103°36'0 0.0
2018-Jun-14 19:22N 01°01' E 103°36'0 0.0
2018-Jun-14 18:58N 01°01' E 103°36'0 0.0
2018-Jun-14 18:13N 01°01' E 103°36'0 0.2
2018-Jun-14 17:56N 01°01' E 103°36'0 0.0
2018-Jun-14 17:19N 01°01' E 103°36'0 0.4
2018-Jun-14 17:00N 01°01' E 103°36'3 6.2
2018-Jun-14 16:28N 01°03' E 103°34'5 9.9
2018-Jun-14 16:00N 01°08' E 103°33'611.3
2018-Jun-14 15:31N 01°11' E 103°37'612.2
2018-Jun-14 15:00N 01°08' E 103°43'612.4
2018-Jun-14 14:31N 01°11' E 103°49'611.3
2018-Jun-14 14:00N 01°14' E 103°53'2 2.9
2018-Jun-14 13:24N 01°16' E 103°53'0 0.0
2018-Jun-14 12:54N 01°16' E 103°53'0 0.0
2018-Jun-14 12:30N 01°16' E 103°53'0 0.0
2018-Jun-14 11:57N 01°16' E 103°53'0 0.0
2018-Jun-14 11:30N 01°16' E 103°53'0 0.0
2018-Jun-14 10:59N 01°16' E 103°53'0 0.0
2018-Jun-14 10:30N 01°16' E 103°53'0 0.0
2018-Jun-14 09:57N 01°16' E 103°53'0 0.0
2018-Jun-14 09:24N 01°16' E 103°53'0 0.0
2018-Jun-14 08:57N 01°16' E 103°53'0 0.0
2018-Jun-14 08:27N 01°16' E 103°53'0 0.0
2018-Jun-14 07:48N 01°16' E 103°53'0 0.1
2018-Jun-14 07:30N 01°16' E 103°53'0 0.1
2018-Jun-14 07:00N 01°16' E 103°53'0 0.1
2018-Jun-14 06:30N 01°16' E 103°53'0 0.1
2018-Jun-14 05:53N 01°16' E 103°53'0 0.0
2018-Jun-14 05:27N 01°16' E 103°53'0 0.1
2018-Jun-14 04:51N 01°16' E 103°53'0 0.2
2018-Jun-14 04:30N 01°16' E 103°53'0 0.0
2018-Jun-14 03:59N 01°16' E 103°53'0 0.1
2018-Jun-14 03:27N 01°16' E 103°53'0 0.0
2018-Jun-14 02:56N 01°16' E 103°53'0 0.0
2018-Jun-14 02:30N 01°16' E 103°53'0 0.0
2018-Jun-14 01:48N 01°16' E 103°53'0 0.0
2018-Jun-14 01:30N 01°16' E 103°53'0 0.0
2018-Jun-14 00:57N 01°16' E 103°53'0 0.1
2018-Jun-14 00:30N 01°16' E 103°53'0 0.0
2018-Jun-13 23:57N 01°16' E 103°53'0 0.0
2018-Jun-13 23:30N 01°16' E 103°53'0 0.0
2018-Jun-13 22:54N 01°16' E 103°53'0 0.0
2018-Jun-13 22:26N 01°16' E 103°53'0 0.2
2018-Jun-13 21:59N 01°16' E 103°53'0 0.2
2018-Jun-13 21:27N 01°16' E 103°53'0 0.1
2018-Jun-13 20:57N 01°16' E 103°53'0 0.0
2018-Jun-13 20:30N 01°16' E 103°53'0 0.0
2018-Jun-13 20:00N 01°16' E 103°53'0 0.1
2018-Jun-13 19:30N 01°16' E 103°53'0 0.0
2018-Jun-13 18:57N 01°16' E 103°53'0 0.0
2018-Jun-13 18:24N 01°16' E 103°53'0 0.0
2018-Jun-13 17:54N 01°16' E 103°53'0 0.0
2018-Jun-13 17:30N 01°16' E 103°53'0 0.0
2018-Jun-13 16:57N 01°16' E 103°53'0 0.1
2018-Jun-13 16:30N 01°16' E 103°53'0 0.0
2018-Jun-13 15:57N 01°16' E 103°53'0 0.1
2018-Jun-13 15:09N 01°16' E 103°53'0 0.0
2018-Jun-13 14:58N 01°16' E 103°53'0 0.1
2018-Jun-13 14:30N 01°16' E 103°53'0 0.2
2018-Jun-13 13:59N 01°16' E 103°53'0 0.1
2018-Jun-13 13:29N 01°16' E 103°53'0 0.0
2018-Jun-13 12:57N 01°16' E 103°53'0 0.0
2018-Jun-13 12:30N 01°16' E 103°53'0 0.0
2018-Jun-13 11:58N 01°16' E 103°53'0 0.0
2018-Jun-13 11:24N 01°16' E 103°53'0 0.0
2018-Jun-13 10:51N 01°16' E 103°53'0 0.0
2018-Jun-13 10:24N 01°16' E 103°53'0 0.0
2018-Jun-13 09:54N 01°16' E 103°53'0 0.0
2018-Jun-13 09:27N 01°16' E 103°53'0 0.0
2018-Jun-13 08:57N 01°16' E 103°53'0 0.1
2018-Jun-13 08:29N 01°16' E 103°53'0 0.1
2018-Jun-13 07:53N 01°16' E 103°53'0 0.0
2018-Jun-13 07:27N 01°16' E 103°53'0 0.0
2018-Jun-13 06:57N 01°16' E 103°53'0 0.0
2018-Jun-13 06:29N 01°16' E 103°53'0 0.0
2018-Jun-13 05:59N 01°16' E 103°53'0 0.0
2018-Jun-13 05:30N 01°16' E 103°53'0 0.0
2018-Jun-13 04:59N 01°16' E 103°53'0 0.0
2018-Jun-13 04:23N 01°16' E 103°53'0 0.2
2018-Jun-13 03:59N 01°16' E 103°53'0 0.0
2018-Jun-13 03:27N 01°16' E 103°53'0 0.0
2018-Jun-13 02:57N 01°16' E 103°53'0 0.0
2018-Jun-13 01:54N 01°16' E 103°53'0 0.0
2018-Jun-13 01:24N 01°16' E 103°53'0 0.0
2018-Jun-13 00:54N 01°16' E 103°53'0 0.2
2018-Jun-13 00:30N 01°16' E 103°53'0 0.0
2018-Jun-12 23:57N 01°16' E 103°53'0 0.0
2018-Jun-12 23:27N 01°16' E 103°53'0 0.0
2018-Jun-12 22:51N 01°16' E 103°53'0 0.0
2018-Jun-12 22:30N 01°16' E 103°53'0 0.0
2018-Jun-12 21:51N 01°16' E 103°53'0 0.1
2018-Jun-12 21:24N 01°16' E 103°53'0 0.0
2018-Jun-12 20:54N 01°16' E 103°53'0 0.1
2018-Jun-12 20:24N 01°16' E 103°53'0 0.0
2018-Jun-12 20:00N 01°16' E 103°53'0 0.1
2018-Jun-12 19:18N 01°16' E 103°53'0 0.0
2018-Jun-12 19:00N 01°16' E 103°53'0 0.0
2018-Jun-12 18:29N 01°16' E 103°53'0 0.0
2018-Jun-12 18:00N 01°16' E 103°53'0 0.0
2018-Jun-12 17:30N 01°16' E 103°53'0 0.0
2018-Jun-12 16:56N 01°16' E 103°53'0 0.0
2018-Jun-12 16:26N 01°16' E 103°53'0 0.0
2018-Jun-12 16:00N 01°16' E 103°53'0 0.1
2018-Jun-12 14:53N 01°16' E 103°53'0 0.0
2018-Jun-12 14:29N 01°16' E 103°53'0 0.1
2018-Jun-12 13:57N 01°16' E 103°53'0 0.2
2018-Jun-12 13:27N 01°16' E 103°53'0 0.1
2018-Jun-12 12:59N 01°16' E 103°53'0 0.1
2018-Jun-12 12:30N 01°16' E 103°53'0 0.0
2018-Jun-12 11:59N 01°16' E 103°53'0 0.0
2018-Jun-12 11:27N 01°16' E 103°53'0 0.0
2018-Jun-12 11:00N 01°16' E 103°53'0 0.1
2018-Jun-12 10:18N 01°16' E 103°53'0 0.1
2018-Jun-12 09:59N 01°16' E 103°53'0 0.2
2018-Jun-12 09:27N 01°16' E 103°53'0 0.0
2018-Jun-12 08:54N 01°16' E 103°53'0 0.0
2018-Jun-12 08:29N 01°16' E 103°53'0 0.1
2018-Jun-12 07:57N 01°16' E 103°53'0 0.1
2018-Jun-12 07:06N 01°16' E 103°53'0 0.0
2018-Jun-12 06:57N 01°16' E 103°53'0 0.1
2018-Jun-12 06:29N 01°16' E 103°53'0 0.1
2018-Jun-12 05:50N 01°16' E 103°53'0 0.1
2018-Jun-12 05:19N 01°16' E 103°53'0 0.0
2018-Jun-12 04:58N 01°16' E 103°53'0 0.0
2018-Jun-12 04:28N 01°16' E 103°53'0 0.0
2018-Jun-12 03:58N 01°16' E 103°53'0 0.2
2018-Jun-12 03:25N 01°16' E 103°53'0 0.1
2018-Jun-12 02:58N 01°16' E 103°53'0 0.0
2018-Jun-12 02:28N 01°16' E 103°53'0 0.0
2018-Jun-12 01:52N 01°16' E 103°53'0 0.0
2018-Jun-12 01:28N 01°16' E 103°53'0 0.0
2018-Jun-12 00:58N 01°16' E 103°53'0 0.0
2018-Jun-12 00:28N 01°16' E 103°53'0 0.1
2018-Jun-11 23:58N 01°16' E 103°53'0 0.0
2018-Jun-11 23:28N 01°16' E 103°53'0 0.1
2018-Jun-11 22:53N 01°16' E 103°53'0 0.2
2018-Jun-11 22:25N 01°16' E 103°53'0 0.1
2018-Jun-11 21:58N 01°16' E 103°53'0 0.0
2018-Jun-11 21:28N 01°16' E 103°53'0 0.0
2018-Jun-11 20:58N 01°16' E 103°53'0 0.0
2018-Jun-11 20:28N 01°16' E 103°53'0 0.1
2018-Jun-11 19:58N 01°16' E 103°53'0 0.0
2018-Jun-11 19:28N 01°16' E 103°53'0 0.0
2018-Jun-11 18:55N 01°16' E 103°53'0 0.0
2018-Jun-11 18:28N 01°16' E 103°53'0 0.0
2018-Jun-11 17:49N 01°16' E 103°53'0 0.0
2018-Jun-11 17:28N 01°16' E 103°53'0 0.0
2018-Jun-11 16:58N 01°16' E 103°53'0 0.0
2018-Jun-11 16:16N 01°16' E 103°53'0 0.1
2018-Jun-11 15:51N 01°16' E 103°53'0 0.0
2018-Jun-11 15:28N 01°16' E 103°53'0 0.1
2018-Jun-11 14:58N 01°16' E 103°53'0 0.1
2018-Jun-11 14:16N 01°16' E 103°53'0 0.0
2018-Jun-11 13:58N 01°16' E 103°53'0 0.0
2018-Jun-11 13:31N 01°16' E 103°53'0 0.2
2018-Jun-11 12:47N 01°16' E 103°53'0 0.1
2018-Jun-11 12:25N 01°16' E 103°53'0 0.1
2018-Jun-11 11:58N 01°16' E 103°53'0 0.1
2018-Jun-11 11:25N 01°16' E 103°53'0 0.0
2018-Jun-11 10:52N 01°16' E 103°53'0 0.0
2018-Jun-11 10:27N 01°16' E 103°53'0 0.0
2018-Jun-11 09:57N 01°16' E 103°53'0 0.1
2018-Jun-11 09:10N 01°16' E 103°53'0 0.1
2018-Jun-11 08:58N 01°16' E 103°53'0 0.2
2018-Jun-11 08:31N 01°16' E 103°53'0 0.1
2018-Jun-11 07:57N 01°16' E 103°53'0 0.1
2018-Jun-11 07:30N 01°16' E 103°53'0 0.0
2018-Jun-11 06:52N 01°16' E 103°53'0 0.0
2018-Jun-11 06:30N 01°16' E 103°53'0 0.0
2018-Jun-11 05:06N 01°16' E 103°53'0 0.0
2018-Jun-11 04:34N 01°16' E 103°53'0 0.0
2018-Jun-11 04:23N 01°16' E 103°53'0 0.0
2018-Jun-11 03:59N 01°16' E 103°53'0 0.0
2018-Jun-11 03:19N 01°16' E 103°53'0 0.0
2018-Jun-11 02:49N 01°16' E 103°53'0 0.1
2018-Jun-11 02:28N 01°16' E 103°53'0 0.1
2018-Jun-11 01:58N 01°16' E 103°53'0 0.2
2018-Jun-11 01:28N 01°16' E 103°53'0 0.1
2018-Jun-11 00:58N 01°16' E 103°53'0 0.0
2018-Jun-11 00:26N 01°16' E 103°53'0 0.0
2018-Jun-10 23:57N 01°16' E 103°53'0 0.0
2018-Jun-10 23:30N 01°16' E 103°53'0 0.0
2018-Jun-10 22:57N 01°16' E 103°53'0 0.0
2018-Jun-10 22:30N 01°16' E 103°53'0 0.0
2018-Jun-10 21:58N 01°16' E 103°53'0 0.2
2018-Jun-10 21:30N 01°16' E 103°53'0 0.1
2018-Jun-10 20:45N 01°16' E 103°53'0 0.2
2018-Jun-10 20:25N 01°16' E 103°53'0 0.0
2018-Jun-10 19:53N 01°16' E 103°53'0 0.1
2018-Jun-10 19:25N 01°16' E 103°53'0 0.0
2018-Jun-10 18:49N 01°16' E 103°53'0 0.0
2018-Jun-10 18:28N 01°16' E 103°53'0 0.0
2018-Jun-10 17:58N 01°16' E 103°53'0 0.1
2018-Jun-10 17:29N 01°16' E 103°53'0 0.1
2018-Jun-10 16:58N 01°16' E 103°53'0 0.0
2018-Jun-10 16:24N 01°16' E 103°53'0 0.1
2018-Jun-10 15:59N 01°16' E 103°53'0 0.1
2018-Jun-10 15:30N 01°16' E 103°53'0 0.0
2018-Jun-10 14:57N 01°16' E 103°53'1 2.8
2018-Jun-10 14:29N 01°15' E 103°54'6 6.3
2018-Jun-10 13:30N 01°16' E 103°60'611.0
2018-Jun-10 12:59N 01°17' E 104°05'612.0
2018-Jun-10 12:30N 01°17' E 104°11'611.8
2018-Jun-10 11:59N 01°18' E 104°17'5 9.4
2018-Jun-10 11:30N 01°20' E 104°21'610.3
2018-Jun-10 10:53N 01°24' E 104°26'  

Dump ship's entire track history